Time;durP1;ratioP1;P1;durP2;ratioP2;P2;SDS_P1;SDS_P2;PMS_P1;PMS_P2;Temp;Humidity;BMP_temperature;BMP_pressure;BME280_temperature;BME280_humidity;BME280_pressure;Samples;Min_cycle;Max_cycle;Signal;HPM_P1;HPM_P2
2021/01/17 00:01:14;;;;;;;35.27;24.60;;;;;;;1.71;62.06;95364.19;6941860;28;20568;-72
2021/01/17 00:04:35;;;;;;;31.27;23.90;;;;;;;1.73;62.38;95357.09;6957639;28;20743;-72
2021/01/17 00:07:56;;;;;;;32.50;24.47;;;;;;;1.73;62.35;95351.84;6971425;28;20274;-72
2021/01/17 00:11:17;;;;;;;34.97;24.67;;;;;;;1.75;62.46;95349.16;6934265;28;20239;-72
2021/01/17 00:14:37;;;;;;;33.57;24.63;;;;;;;1.80;62.29;95348.00;6949134;28;20210;-71
2021/01/17 00:17:58;;;;;;;34.50;25.90;;;;;;;1.89;62.72;95338.81;6968312;28;20274;-72
2021/01/17 00:21:18;;;;;;;34.90;25.97;;;;;;;1.88;62.40;95332.72;6946873;28;20208;-71
2021/01/17 00:24:39;;;;;;;35.60;25.83;;;;;;;1.87;62.42;95335.41;6958307;28;20210;-72
2021/01/17 00:28:01;;;;;;;32.87;25.00;;;;;;;1.87;62.68;95324.94;6924423;28;20224;-72
2021/01/17 00:31:21;;;;;;;33.03;25.10;;;;;;;1.87;62.30;95324.94;6927492;28;20216;-72
2021/01/17 00:34:45;;;;;;;35.57;25.33;;;;;;;1.91;62.85;95321.25;6942139;28;20664;-72
2021/01/17 00:38:05;;;;;;;32.43;23.70;;;;;;;2.03;62.94;95318.78;6924635;28;20287;-72
2021/01/17 00:41:30;;;;;;;32.87;24.37;;;;;;;2.09;62.78;95320.22;6932402;28;20220;-73
2021/01/17 00:44:51;;;;;;;30.80;23.33;;;;;;;2.15;62.09;95312.03;6930427;28;20298;-72
2021/01/17 00:48:11;;;;;;;33.37;24.77;;;;;;;2.23;62.48;95306.38;6914279;28;20237;-72
2021/01/17 00:51:44;;;;;;;29.50;23.03;;;;;;;2.27;62.45;95300.88;6941180;28;20226;-73
2021/01/17 00:55:06;;;;;;;28.27;20.47;;;;;;;2.31;62.18;95305.03;6941649;28;20311;-72
2021/01/17 00:58:26;;;;;;;24.47;18.77;;;;;;;2.39;61.99;95302.81;6937211;28;20222;-73
2021/01/17 01:01:47;;;;;;;26.37;19.90;;;;;;;2.46;62.22;95301.56;6939517;28;20235;-73
2021/01/17 01:05:11;;;;;;;26.17;20.70;;;;;;;2.48;62.06;95286.56;6951192;28;20224;-72
2021/01/17 01:08:32;;;;;;;23.30;18.57;;;;;;;2.47;62.36;95286.66;6942756;28;20279;-72
2021/01/17 01:11:52;;;;;;;20.17;16.23;;;;;;;2.48;62.52;95280.47;6948548;28;20311;-72
2021/01/17 01:15:13;;;;;;;20.67;16.10;;;;;;;2.49;62.02;95279.56;6948169;28;20874;-72
2021/01/17 01:18:34;;;;;;;20.63;15.60;;;;;;;2.42;62.49;95281.66;6951254;28;20234;-72
2021/01/17 01:21:55;;;;;;;21.93;17.37;;;;;;;2.34;62.57;95283.03;6955816;28;20236;-72
2021/01/17 01:25:15;;;;;;;37.40;27.37;;;;;;;2.30;62.53;95279.75;6958306;28;20216;-72
2021/01/17 01:28:35;;;;;;;43.57;30.80;;;;;;;2.22;62.41;95271.47;6977337;28;20989;-72
2021/01/17 01:31:56;;;;;;;37.00;27.63;;;;;;;2.13;62.26;95272.84;6961113;28;20235;-72
2021/01/17 01:35:16;;;;;;;39.07;28.33;;;;;;;2.13;62.43;95257.13;6940291;28;20216;-72
2021/01/17 01:38:39;;;;;;;36.37;26.70;;;;;;;2.16;62.18;95258.72;6951319;28;20293;-72
2021/01/17 01:42:06;;;;;;;35.70;26.43;;;;;;;2.21;62.49;95258.47;6937375;28;20223;-72
2021/01/17 01:45:26;;;;;;;36.93;26.77;;;;;;;2.15;62.46;95260.50;6938447;28;20234;-72
2021/01/17 01:48:48;;;;;;;34.93;26.40;;;;;;;2.12;62.67;95262.44;6964438;28;20314;-72
2021/01/17 01:52:13;;;;;;;36.47;27.30;;;;;;;2.23;62.53;95269.69;6958631;28;20227;-72
2021/01/17 01:55:33;;;;;;;35.67;26.50;;;;;;;2.33;62.56;95273.47;6962430;28;20214;-72
2021/01/17 01:58:55;;;;;;;36.10;27.27;;;;;;;2.42;62.40;95267.72;6949868;28;20223;-72
2021/01/17 02:02:15;;;;;;;30.63;23.03;;;;;;;2.48;62.26;95259.50;6967138;28;20220;-72
2021/01/17 02:05:35;;;;;;;30.77;21.10;;;;;;;2.49;62.03;95275.16;6934799;28;20219;-68
2021/01/17 02:09:19;;;;;;;27.27;19.87;;;;;;;2.51;62.59;95288.19;6947972;28;20253;-73
2021/01/17 02:12:52;;;;;;;41.27;30.00;;;;;;;2.54;62.91;95286.22;6943850;28;20228;-72
2021/01/17 02:16:15;;;;;;;33.97;26.20;;;;;;;2.49;62.46;95285.66;6946967;28;20565;-72
2021/01/17 02:19:37;;;;;;;43.83;30.03;;;;;;;2.42;62.13;95278.19;6936326;28;20227;-72
2021/01/17 02:23:01;;;;;;;40.33;28.20;;;;;;;2.34;62.32;95276.03;6933296;28;20641;-72
2021/01/17 02:26:22;;;;;;;42.07;30.50;;;;;;;2.26;62.27;95269.53;6976929;28;20702;-72
2021/01/17 02:29:45;;;;;;;37.23;27.80;;;;;;;2.20;62.32;95264.63;6953260;28;20219;-71
2021/01/17 02:33:14;;;;;;;40.03;29.57;;;;;;;2.22;62.81;95276.69;6951670;28;20235;-72
2021/01/17 02:36:45;;;;;;;38.73;29.03;;;;;;;2.32;63.20;95266.56;6924429;28;20218;-72
2021/01/17 02:40:43;;;;;;;35.67;24.67;;;;;;;2.41;62.84;95263.44;6954281;28;20243;-72
2021/01/17 02:44:07;;;;;;;29.53;22.43;;;;;;;2.52;63.66;95282.00;6940886;28;20260;-72
2021/01/17 02:47:27;;;;;;;28.80;20.70;;;;;;;2.63;64.24;95279.59;6925982;28;20228;-72
2021/01/17 02:50:48;;;;;;;23.87;17.70;;;;;;;2.76;64.33;95282.38;6934480;28;20216;-72
2021/01/17 02:54:11;;;;;;;21.57;15.87;;;;;;;2.90;64.26;95283.25;6943302;28;20245;-70
2021/01/17 02:57:34;;;;;;;19.57;15.17;;;;;;;3.06;64.67;95285.84;6953900;28;20270;-72
2021/01/17 03:00:57;;;;;;;19.00;14.10;;;;;;;3.15;64.73;95290.53;6940069;28;20704;-72
2021/01/17 03:04:24;;;;;;;16.93;13.03;;;;;;;3.21;64.65;95294.56;6955507;28;20236;-72
2021/01/17 03:07:54;;;;;;;18.23;13.23;;;;;;;3.25;64.87;95296.06;6945878;28;20290;-72
2021/01/17 03:11:15;;;;;;;20.97;14.53;;;;;;;3.27;64.80;95291.59;6942142;28;20221;-72
2021/01/17 03:14:39;;;;;;;85.50;55.63;;;;;;;3.22;64.50;95291.84;6940393;28;20243;-72
2021/01/17 03:18:01;;;;;;;60.17;40.40;;;;;;;3.10;63.65;95287.34;6937458;28;20716;-72
2021/01/17 03:21:21;;;;;;;38.90;28.07;;;;;;;2.98;63.65;95288.91;6962833;28;20227;-72
2021/01/17 03:24:42;;;;;;;34.03;25.37;;;;;;;2.95;64.11;95288.25;6966979;28;20223;-72
2021/01/17 03:28:02;;;;;;;26.80;20.40;;;;;;;2.92;64.13;95285.78;6948457;28;20232;-72
2021/01/17 03:31:23;;;;;;;31.53;21.53;;;;;;;2.92;64.27;95280.53;6945182;28;20252;-72
2021/01/17 03:34:48;;;;;;;24.40;18.77;;;;;;;2.99;64.68;95280.09;6973762;28;20223;-71
2021/01/17 03:38:08;;;;;;;23.37;16.87;;;;;;;3.07;64.58;95287.50;6966546;28;20256;-72
2021/01/17 03:41:29;;;;;;;23.10;17.40;;;;;;;3.09;64.42;95277.78;6949121;28;20251;-72
2021/01/17 03:44:49;;;;;;;23.43;15.77;;;;;;;3.12;64.74;95276.75;6953692;28;20731;-73
2021/01/17 03:48:09;;;;;;;18.33;15.03;;;;;;;3.14;65.29;95275.72;6942630;28;20224;-72
2021/01/17 03:51:30;;;;;;;19.47;14.87;;;;;;;3.22;65.63;95281.34;6974459;28;20754;-72
2021/01/17 03:54:50;;;;;;;19.30;14.70;;;;;;;3.29;65.64;95272.19;6946593;28;20211;-72
2021/01/17 03:58:11;;;;;;;19.13;13.27;;;;;;;3.35;65.53;95276.22;6964466;28;20322;-72
2021/01/17 04:01:31;;;;;;;12.00;9.73;;;;;;;3.43;65.98;95282.69;6972411;28;20247;-73
2021/01/17 04:04:52;;;;;;;11.77;9.57;;;;;;;3.53;65.92;95280.34;6959901;28;20207;-72
2021/01/17 04:08:12;;;;;;;12.20;9.00;;;;;;;3.64;66.14;95279.69;6943446;28;20239;-72
2021/01/17 04:11:33;;;;;;;11.27;8.57;;;;;;;3.73;66.47;95284.38;6940834;28;20233;-72
2021/01/17 04:14:56;;;;;;;9.60;7.57;;;;;;;3.82;66.94;95282.03;6956904;28;20218;-72
2021/01/17 04:18:18;;;;;;;12.30;8.90;;;;;;;3.80;66.44;95283.91;6962463;28;20597;-72
2021/01/17 04:21:39;;;;;;;11.10;8.90;;;;;;;3.84;66.60;95277.53;6948551;28;20616;-72
2021/01/17 04:24:59;;;;;;;11.20;8.40;;;;;;;3.89;66.99;95285.97;6958259;28;20798;-73
2021/01/17 04:28:20;;;;;;;9.43;7.13;;;;;;;3.97;66.96;95287.28;6974558;28;20222;-72
2021/01/17 04:31:42;;;;;;;7.10;6.30;;;;;;;4.01;66.21;95286.16;6947582;28;20225;-72
2021/01/17 04:35:05;;;;;;;5.97;5.00;;;;;;;3.92;66.88;95284.09;6968611;28;20217;-72
2021/01/17 04:38:25;;;;;;;6.90;6.03;;;;;;;3.84;67.88;95277.53;6947235;28;20216;-72
2021/01/17 04:41:46;;;;;;;7.07;5.60;;;;;;;3.91;67.25;95274.53;6950965;28;20222;-72
2021/01/17 04:45:09;;;;;;;5.93;5.17;;;;;;;3.97;67.46;95276.78;6955375;28;20574;-72
2021/01/17 04:48:30;;;;;;;7.43;5.00;;;;;;;4.04;67.69;95283.31;6972882;28;20229;-72
2021/01/17 04:51:51;;;;;;;5.23;4.53;;;;;;;4.09;67.39;95279.47;6980274;28;20220;-72
2021/01/17 04:55:12;;;;;;;5.57;4.30;;;;;;;4.14;67.27;95281.81;6945324;28;20304;-72
2021/01/17 04:58:34;;;;;;;4.93;3.80;;;;;;;4.16;67.40;95295.69;6979964;28;20625;-72
2021/01/17 05:02:16;;;;;;;2.93;2.70;;;;;;;4.24;67.71;95285.53;6967868;28;20218;-72
2021/01/17 05:06:06;;;;;;;2.20;2.00;;;;;;;4.18;67.53;95285.91;6955033;28;20221;-72
2021/01/17 05:09:31;;;;;;;1.87;1.67;;;;;;;3.87;68.40;95279.97;6955719;28;20235;-72
2021/01/17 05:12:54;;;;;;;1.57;1.47;;;;;;;3.83;69.14;95272.38;6926136;28;20668;-72
2021/01/17 05:16:16;;;;;;;1.80;1.70;;;;;;;3.78;69.28;95269.19;6969444;28;20229;-72
2021/01/17 05:19:40;;;;;;;1.83;1.70;;;;;;;3.72;70.06;95264.34;6940852;28;20239;-72
2021/01/17 05:23:01;;;;;;;1.20;1.10;;;;;;;3.67;69.94;95269.84;6946145;28;20216;-72
2021/01/17 05:26:22;;;;;;;1.13;1.10;;;;;;;3.52;70.20;95260.28;6944107;28;20700;-72
2021/01/17 05:29:42;;;;;;;2.83;2.07;;;;;;;3.49;71.19;95270.97;6948168;28;20229;-72
2021/01/17 05:33:09;;;;;;;0.90;0.90;;;;;;;3.52;70.85;95272.59;6959878;28;20229;-72
2021/01/17 05:36:29;;;;;;;1.30;1.20;;;;;;;3.64;71.11;95282.31;6985479;28;20212;-72
2021/01/17 05:39:52;;;;;;;0.80;0.80;;;;;;;3.76;70.79;95281.56;6957783;28;20214;-71
2021/01/17 05:43:13;;;;;;;0.70;0.70;;;;;;;3.65;70.67;95273.50;6958386;28;20348;-72
2021/01/17 05:46:34;;;;;;;0.70;0.70;;;;;;;3.68;70.42;95274.16;6949987;28;20225;-73
2021/01/17 05:50:06;;;;;;;0.83;0.83;;;;;;;3.65;70.33;95274.34;6956826;28;20237;-72
2021/01/17 05:53:27;;;;;;;0.67;0.67;;;;;;;3.71;70.79;95271.38;6942268;28;20221;-72
2021/01/17 05:56:47;;;;;;;0.77;0.77;;;;;;;3.63;70.07;95273.59;6958161;28;20237;-72
2021/01/17 06:00:08;;;;;;;0.60;0.60;;;;;;;3.68;70.55;95257.56;6959125;28;20679;-72
2021/01/17 06:03:31;;;;;;;0.80;0.80;;;;;;;3.73;70.22;95264.22;6957254;28;20304;-72
2021/01/17 06:06:53;;;;;;;0.70;0.70;;;;;;;3.78;70.10;95259.53;6965739;28;20636;-72
2021/01/17 06:10:21;;;;;;;0.70;0.70;;;;;;;3.76;69.98;95257.94;6965904;28;20225;-72
2021/01/17 06:13:42;;;;;;;0.80;0.80;;;;;;;3.72;70.48;95273.03;6929734;28;20220;-72
2021/01/17 06:17:04;;;;;;;0.70;0.70;;;;;;;3.82;70.47;95281.22;6971997;28;20484;-73
2021/01/17 06:20:28;;;;;;;0.60;0.60;;;;;;;3.90;70.05;95286.81;6965475;28;20232;-72
2021/01/17 06:23:58;;;;;;;0.60;0.60;;;;;;;3.89;70.43;95285.13;6938326;28;20230;-72
2021/01/17 06:27:22;;;;;;;0.70;0.70;;;;;;;3.90;69.98;95299.94;6960381;28;20225;-72
2021/01/17 06:30:42;;;;;;;0.53;0.53;;;;;;;3.98;69.70;95291.56;6956911;28;20221;-72
2021/01/17 06:34:15;;;;;;;0.70;0.70;;;;;;;4.07;69.64;95293.66;6962650;28;20243;-72
2021/01/17 06:37:36;;;;;;;0.60;0.60;;;;;;;3.98;69.03;95281.91;6942390;28;20600;-72
2021/01/17 06:40:58;;;;;;;0.70;0.70;;;;;;;4.05;69.59;95287.63;6971390;28;20697;-72
2021/01/17 06:44:27;;;;;;;0.70;0.70;;;;;;;4.13;69.23;95291.47;6967152;28;20221;-72
2021/01/17 06:47:54;;;;;;;0.60;0.60;;;;;;;4.16;68.49;95290.44;6946454;28;20240;-72
2021/01/17 06:51:16;;;;;;;0.70;0.70;;;;;;;4.14;68.46;95294.94;6947566;28;20940;-72
2021/01/17 06:54:40;;;;;;;0.60;0.60;;;;;;;4.00;68.71;95287.09;6953854;28;20221;-72
2021/01/17 06:58:04;;;;;;;0.73;0.73;;;;;;;3.93;69.03;95288.41;6952805;28;20269;-72
2021/01/17 07:01:28;;;;;;;0.70;0.70;;;;;;;3.87;69.00;95295.72;6950853;28;20217;-73
2021/01/17 07:04:51;;;;;;;0.80;0.80;;;;;;;3.93;69.49;95298.91;6942394;28;20213;-72
2021/01/17 07:08:21;;;;;;;0.87;0.87;;;;;;;4.02;69.22;95301.84;6959121;28;20227;-72
2021/01/17 07:12:08;;;;;;;1.07;0.83;;;;;;;3.96;69.02;95306.63;6941506;28;20639;-72
2021/01/17 07:15:30;;;;;;;0.80;0.80;;;;;;;3.82;69.98;95304.84;6934089;28;20227;-72
2021/01/17 07:18:52;;;;;;;0.97;0.97;;;;;;;3.90;69.64;95323.59;6938449;28;20218;-71
2021/01/17 07:22:15;;;;;;;1.53;0.77;;;;;;;3.96;69.39;95325.84;6952707;28;20244;-72
2021/01/17 07:25:37;;;;;;;0.90;0.90;;;;;;;4.06;69.97;95334.00;6948000;28;20215;-72
2021/01/17 07:29:00;;;;;;;0.97;0.97;;;;;;;4.13;69.44;95338.78;6954245;28;20224;-72
2021/01/17 07:32:36;;;;;;;1.10;1.00;;;;;;;4.18;68.78;95339.31;6921986;28;20226;-72
2021/01/17 07:36:05;;;;;;;0.83;0.83;;;;;;;4.17;69.02;95339.44;6939856;28;20602;-72
2021/01/17 07:39:27;;;;;;;0.90;0.90;;;;;;;4.24;68.69;95341.56;6954129;28;20226;-72
2021/01/17 07:42:53;;;;;;;0.80;0.80;;;;;;;4.20;68.54;95347.97;6932594;28;20680;-72
2021/01/17 07:46:18;;;;;;;1.03;0.83;;;;;;;4.08;69.08;95351.34;6947531;28;20268;-72
2021/01/17 07:49:38;;;;;;;1.10;1.10;;;;;;;4.12;69.35;95345.00;6974142;28;20309;-72
2021/01/17 07:52:59;;;;;;;0.97;0.97;;;;;;;4.23;69.39;95362.69;6938022;28;20231;-71
2021/01/17 07:56:29;;;;;;;0.90;0.90;;;;;;;4.31;68.89;95368.34;6942290;28;20217;-72
2021/01/17 07:59:49;;;;;;;0.87;0.80;;;;;;;4.39;68.71;95367.84;6960300;28;20304;-72
2021/01/17 08:03:23;;;;;;;1.10;1.10;;;;;;;4.45;68.51;95373.56;6952766;28;20288;-73
2021/01/17 08:06:47;;;;;;;1.10;1.00;;;;;;;4.47;68.23;95387.47;6934181;28;20240;-71
2021/01/17 08:10:07;;;;;;;1.10;1.10;;;;;;;4.45;67.75;95391.97;6975324;28;20648;-71
2021/01/17 08:13:32;;;;;;;1.20;1.10;;;;;;;4.38;68.40;95385.41;6953822;28;20769;-71
2021/01/17 08:17:16;;;;;;;1.17;1.17;;;;;;;4.34;68.54;95399.69;6942019;28;20215;-73
2021/01/17 08:20:36;;;;;;;1.40;1.30;;;;;;;4.36;68.63;95402.22;6961665;28;20218;-71
2021/01/17 08:24:12;;;;;;;1.43;1.33;;;;;;;4.41;68.41;95403.63;6965748;28;20229;-71
2021/01/17 08:27:45;;;;;;;2.60;1.40;;;;;;;4.40;68.60;95406.34;6981919;28;20760;-72
2021/01/17 08:31:34;;;;;;;1.80;1.70;;;;;;;4.31;68.44;95405.13;6948228;28;20217;-73
2021/01/17 08:34:56;;;;;;;1.50;1.40;;;;;;;4.31;68.45;95398.09;6918907;28;20251;-73
2021/01/17 08:38:18;;;;;;;1.70;1.60;;;;;;;4.42;69.05;95412.38;6917002;28;20228;-73
2021/01/17 08:41:40;;;;;;;1.97;1.80;;;;;;;4.51;68.74;95425.78;6919445;28;20221;-73
2021/01/17 08:45:03;;;;;;;1.77;1.60;;;;;;;4.61;68.37;95426.03;6933048;28;20593;-73
2021/01/17 08:48:25;;;;;;;1.63;1.53;;;;;;;4.77;68.43;95428.56;6937928;28;20229;-73
2021/01/17 08:51:59;;;;;;;1.63;1.53;;;;;;;4.79;67.62;95426.66;6930961;28;20225;-72
2021/01/17 08:55:42;;;;;;;1.93;1.80;;;;;;;4.69;67.32;95431.66;6933269;28;20230;-72
2021/01/17 08:59:02;;;;;;;2.17;1.90;;;;;;;4.67;67.34;95433.56;6930293;28;20254;-73
2021/01/17 09:02:23;;;;;;;2.07;1.87;;;;;;;4.55;67.57;95445.69;6931245;28;20225;-74
2021/01/17 09:05:44;;;;;;;1.90;1.80;;;;;;;4.58;67.62;95453.38;6942480;28;20210;-73
2021/01/17 09:09:06;;;;;;;2.17;2.07;;;;;;;4.49;68.37;95453.94;6934123;28;20673;-73
2021/01/17 09:12:28;;;;;;;2.30;2.10;;;;;;;4.45;68.38;95472.63;6936652;28;20257;-75
2021/01/17 09:15:51;;;;;;;2.40;2.07;;;;;;;4.45;68.67;95475.25;6925193;28;20215;-75
2021/01/17 09:19:12;;;;;;;2.27;2.07;;;;;;;4.42;69.95;95471.06;6938012;28;20217;-74
2021/01/17 09:22:33;;;;;;;2.10;1.90;;;;;;;4.45;69.95;95478.75;6947405;28;20576;-73
2021/01/17 09:25:58;;;;;;;2.13;1.97;;;;;;;4.48;70.55;95490.84;6945449;28;20293;-69
2021/01/17 09:29:27;;;;;;;2.30;2.10;;;;;;;4.59;71.36;95489.25;6956684;28;20238;-72
2021/01/17 09:32:51;;;;;;;2.03;1.93;;;;;;;4.78;70.93;95493.41;6935342;28;20225;-72
2021/01/17 09:36:12;;;;;;;1.90;1.80;;;;;;;4.95;69.86;95503.69;6938463;28;20244;-72
2021/01/17 09:39:38;;;;;;;1.57;1.47;;;;;;;5.00;69.18;95505.09;6940075;28;20573;-71
2021/01/17 09:43:00;;;;;;;1.50;1.40;;;;;;;5.13;68.93;95500.72;6925844;28;20768;-72
2021/01/17 09:46:24;;;;;;;1.30;1.20;;;;;;;5.16;67.74;95510.25;6942887;28;20280;-73
2021/01/17 09:49:45;;;;;;;1.80;1.70;;;;;;;5.21;68.24;95512.56;6954126;28;20294;-70
2021/01/17 09:53:07;;;;;;;1.70;1.60;;;;;;;5.26;67.64;95515.75;6929394;28;20235;-71
2021/01/17 09:56:29;;;;;;;1.33;1.23;;;;;;;5.28;67.88;95513.88;6953811;28;20696;-70
2021/01/17 09:59:51;;;;;;;1.50;1.40;;;;;;;5.15;67.68;95512.03;6942566;28;20253;-70
2021/01/17 10:03:13;;;;;;;1.80;1.70;;;;;;;5.08;67.92;95515.16;6947684;28;20218;-72
2021/01/17 10:06:34;;;;;;;1.60;1.50;;;;;;;5.23;68.24;95518.59;6946597;28;20269;-70
2021/01/17 10:09:54;;;;;;;1.43;1.33;;;;;;;5.28;67.40;95516.53;6952858;28;20222;-70
2021/01/17 10:13:15;;;;;;;1.60;1.40;;;;;;;5.35;67.44;95517.81;6931069;28;20685;-70
2021/01/17 10:16:35;;;;;;;1.37;1.27;;;;;;;5.44;67.66;95515.41;6966875;28;20224;-70
2021/01/17 10:19:56;;;;;;;1.30;1.20;;;;;;;5.50;67.01;95522.09;6962066;28;20214;-70
2021/01/17 10:23:18;;;;;;;1.33;1.23;;;;;;;5.42;67.77;95519.97;6972780;28;21822;-70
2021/01/17 10:26:39;;;;;;;1.70;1.60;;;;;;;5.42;67.07;95524.38;6961760;28;20218;-69
2021/01/17 10:29:59;;;;;;;1.70;1.60;;;;;;;5.38;67.16;95507.91;6958654;28;20298;-70
2021/01/17 10:33:20;;;;;;;1.63;1.53;;;;;;;5.45;67.27;95519.75;6979599;28;20222;-70
2021/01/17 10:36:41;;;;;;;1.40;1.30;;;;;;;5.53;67.23;95514.00;6959969;28;20243;-70
2021/01/17 10:40:02;;;;;;;5.87;5.27;;;;;;;5.58;66.63;95520.63;6943063;28;20214;-70
2021/01/17 10:43:36;;;;;;;3.57;3.23;;;;;;;5.61;66.57;95512.56;6952366;28;20364;-70
2021/01/17 10:47:11;;;;;;;2.20;2.00;;;;;;;5.62;66.38;95516.03;6933052;28;20216;-70
2021/01/17 10:51:07;;;;;;;4.67;4.27;;;;;;;5.55;65.87;95512.94;6903249;28;20211;-71
2021/01/17 10:54:31;;;;;;;16.43;6.97;;;;;;;5.50;66.39;95512.41;6930001;28;20271;-71
2021/01/17 10:57:51;;;;;;;31.57;7.57;;;;;;;5.47;66.16;95515.25;6915423;28;20233;-71
2021/01/17 11:01:12;;;;;;;262.63;13.77;;;;;;;5.41;65.95;95509.50;6929277;28;20216;-71
2021/01/17 11:04:40;;;;;;;98.07;8.97;;;;;;;5.33;66.01;95515.25;6932340;28;20306;-72
2021/01/17 11:08:00;;;;;;;538.87;15.33;;;;;;;5.33;66.39;95523.16;6932968;28;20220;-71
2021/01/17 11:11:29;;;;;;;35.47;6.50;;;;;;;5.32;66.47;95513.59;6934389;28;20226;-71
2021/01/17 11:14:50;;;;;;;170.30;11.17;;;;;;;5.30;66.28;95510.19;6914451;28;20703;-72
2021/01/17 11:18:10;;;;;;;144.50;13.40;;;;;;;5.33;66.24;95515.25;6915257;28;20743;-71
2021/01/17 11:21:31;;;;;;;111.43;15.07;;;;;;;5.35;66.07;95510.75;6937763;28;20227;-73
2021/01/17 11:24:51;;;;;;;7.87;7.07;;;;;;;5.41;66.53;95510.38;6957515;28;20207;-72
2021/01/17 11:28:14;;;;;;;1.40;1.30;;;;;;;5.40;65.78;95506.03;6924537;28;20216;-72
2021/01/17 11:31:46;;;;;;;2.40;2.20;;;;;;;5.45;66.51;95505.72;6938997;28;20225;-71
2021/01/17 11:35:21;;;;;;;1.20;1.20;;;;;;;5.53;66.13;95499.00;6929185;28;20262;-70
2021/01/17 11:38:44;;;;;;;1.17;1.10;;;;;;;5.63;65.66;95491.38;6933079;28;20235;-71
2021/01/17 11:42:05;;;;;;;1.00;1.00;;;;;;;5.70;65.53;95489.16;6936959;28;20219;-70
2021/01/17 11:45:25;;;;;;;1.20;1.10;;;;;;;5.73;65.28;95481.09;6946254;28;20215;-70
2021/01/17 11:48:46;;;;;;;1.00;1.00;;;;;;;5.60;65.28;95487.16;6942555;28;20237;-71
2021/01/17 11:52:15;;;;;;;1.00;1.00;;;;;;;5.68;66.00;95480.53;6938905;28;20349;-72
2021/01/17 11:55:36;;;;;;;1.30;1.20;;;;;;;5.74;66.13;95482.75;6923375;28;20639;-72
2021/01/17 11:58:59;;;;;;;0.90;0.90;;;;;;;5.77;65.72;95483.41;6917338;28;20742;-72
2021/01/17 12:02:21;;;;;;;1.40;1.30;;;;;;;5.83;65.78;95488.28;6932424;28;20230;-71
2021/01/17 12:05:42;;;;;;;0.97;0.97;;;;;;;5.85;64.97;95483.72;6925302;28;20207;-72
2021/01/17 12:09:04;;;;;;;1.27;1.17;;;;;;;5.70;65.51;95484.75;6935730;28;20226;-72
2021/01/17 12:12:26;;;;;;;1.00;1.00;;;;;;;5.72;65.99;95487.28;6931712;28;20208;-71
2021/01/17 12:15:47;;;;;;;1.00;1.00;;;;;;;5.72;66.89;95477.59;6910015;28;20678;-72
2021/01/17 12:19:10;;;;;;;0.93;0.80;;;;;;;5.59;65.84;95474.06;6949603;28;20708;-71
2021/01/17 12:22:30;;;;;;;0.73;0.73;;;;;;;5.65;67.03;95483.34;6923778;28;20660;-72
2021/01/17 12:25:51;;;;;;;0.80;0.80;;;;;;;5.61;66.31;95477.47;6922752;28;20705;-71
2021/01/17 12:29:12;;;;;;;0.60;0.60;;;;;;;5.55;66.11;95481.34;6921633;28;20701;-72
2021/01/17 12:32:33;;;;;;;0.87;0.70;;;;;;;5.63;66.38;95494.84;6921591;28;20314;-71
2021/01/17 12:35:53;;;;;;;0.60;0.60;;;;;;;5.72;66.52;95496.03;6942942;28;20207;-70
2021/01/17 12:39:19;;;;;;;0.60;0.60;;;;;;;5.73;66.84;95495.09;6950531;28;20849;-71
2021/01/17 12:42:39;;;;;;;0.60;0.60;;;;;;;5.83;67.16;95493.56;6945919;28;20210;-70
2021/01/17 12:45:59;;;;;;;0.50;0.50;;;;;;;5.85;65.63;95493.44;6965338;28;20225;-70
2021/01/17 12:49:22;;;;;;;0.50;0.50;;;;;;;5.90;67.05;95494.84;6947685;28;20246;-72
2021/01/17 12:52:44;;;;;;;0.50;0.50;;;;;;;5.83;65.75;95503.25;6922598;28;20241;-72
2021/01/17 12:56:08;;;;;;;0.60;0.60;;;;;;;5.84;66.29;95505.75;6925582;28;20216;-71
2021/01/17 12:59:28;;;;;;;0.60;0.60;;;;;;;5.81;65.42;95499.84;6968873;28;20285;-71
2021/01/17 13:02:49;;;;;;;0.50;0.50;;;;;;;5.82;65.70;95505.03;6932270;28;20242;-72
2021/01/17 13:06:13;;;;;;;0.60;0.60;;;;;;;5.67;65.46;95515.72;6952011;28;20250;-71
2021/01/17 13:09:36;;;;;;;0.40;0.40;;;;;;;5.63;65.28;95520.38;6938565;28;20216;-72
2021/01/17 13:12:56;;;;;;;0.70;0.70;;;;;;;5.62;65.01;95523.94;6950410;28;20220;-71
2021/01/17 13:16:19;;;;;;;0.80;0.80;;;;;;;5.63;64.94;95518.53;6937599;28;20223;-70
2021/01/17 13:19:39;;;;;;;0.50;0.50;;;;;;;5.71;65.20;95527.75;6936572;28;20257;-71
2021/01/17 13:23:00;;;;;;;0.60;0.60;;;;;;;5.83;65.24;95524.31;6953043;28;20235;-72
2021/01/17 13:26:20;;;;;;;0.63;0.63;;;;;;;5.98;64.70;95536.53;6968172;28;20219;-71
2021/01/17 13:29:41;;;;;;;0.80;0.80;;;;;;;6.09;63.84;95539.25;6940114;28;20273;-71
2021/01/17 13:33:04;;;;;;;0.83;0.83;;;;;;;6.18;63.33;95529.91;6937520;28;20243;-72
2021/01/17 13:36:25;;;;;;;2.20;0.80;;;;;;;6.27;63.21;95547.75;6952064;28;20297;-72
2021/01/17 13:39:46;;;;;;;0.90;0.90;;;;;;;6.24;62.75;95543.50;6955317;28;20610;-73
2021/01/17 13:43:07;;;;;;;0.63;0.63;;;;;;;6.22;63.05;95560.41;6938687;28;20226;-71
2021/01/17 13:46:27;;;;;;;0.63;0.63;;;;;;;6.25;63.38;95563.66;6954819;28;20237;-73
2021/01/17 13:50:00;;;;;;;0.70;0.70;;;;;;;6.31;62.53;95565.06;6948671;28;20217;-72
2021/01/17 13:53:21;;;;;;;0.97;0.73;;;;;;;6.25;62.52;95573.38;6931046;28;20216;-73
2021/01/17 13:56:41;;;;;;;0.90;0.80;;;;;;;6.33;62.78;95582.47;6927103;28;20237;-72
2021/01/17 14:00:07;;;;;;;1.07;0.83;;;;;;;6.42;62.32;95581.88;6931409;28;20203;-73
2021/01/17 14:03:28;;;;;;;1.37;1.00;;;;;;;6.42;61.90;95596.84;6933628;28;20315;-73
2021/01/17 14:06:51;;;;;;;0.93;0.90;;;;;;;6.54;62.34;95595.19;6922206;28;20227;-72
2021/01/17 14:10:11;;;;;;;0.90;0.90;;;;;;;6.49;62.03;95603.38;6921012;28;20250;-72
2021/01/17 14:13:32;;;;;;;1.27;0.90;;;;;;;6.43;61.40;95614.38;6920325;28;20652;-72
2021/01/17 14:16:52;;;;;;;1.00;1.00;;;;;;;6.35;62.16;95614.00;6933304;28;20237;-72
2021/01/17 14:20:13;;;;;;;2.13;1.00;;;;;;;6.28;62.06;95618.88;6954872;28;20750;-71
2021/01/17 14:23:34;;;;;;;1.80;1.20;;;;;;;6.33;62.43;95627.31;6952887;28;20215;-71
2021/01/17 14:26:54;;;;;;;2.33;1.23;;;;;;;6.33;62.03;95632.59;6959702;28;20225;-71
2021/01/17 14:30:15;;;;;;;1.10;0.97;;;;;;;6.35;62.26;95635.97;6972991;28;20237;-71
2021/01/17 14:33:35;;;;;;;1.77;1.10;;;;;;;6.32;61.79;95636.19;6961422;28;20660;-71
2021/01/17 14:36:56;;;;;;;1.13;1.00;;;;;;;6.26;62.21;95639.22;6954411;28;20234;-72
2021/01/17 14:40:17;;;;;;;1.40;1.23;;;;;;;6.25;62.78;95655.13;6944951;28;20219;-71
2021/01/17 14:43:40;;;;;;;1.60;1.50;;;;;;;6.30;62.85;95648.59;6913339;28;20285;-71
2021/01/17 14:47:01;;;;;;;1.80;1.70;;;;;;;6.35;63.04;95664.13;6925114;28;20722;-72
2021/01/17 14:50:21;;;;;;;2.60;1.60;;;;;;;6.36;62.82;95669.31;6952274;28;20237;-72
2021/01/17 14:53:42;;;;;;;1.60;1.43;;;;;;;6.13;62.68;95667.34;6968187;28;20588;-72
2021/01/17 14:57:02;;;;;;;2.83;1.80;;;;;;;6.02;62.87;95673.31;6979573;28;20363;-72
2021/01/17 15:00:23;;;;;;;2.07;1.67;;;;;;;5.76;63.32;95695.16;6983647;28;20325;-72
2021/01/17 15:03:43;;;;;;;2.30;1.70;;;;;;;5.64;64.12;95688.00;6945318;28;20295;-72
2021/01/17 15:07:06;;;;;;;2.47;1.63;;;;;;;5.57;64.40;95694.63;6970657;28;20229;-73
2021/01/17 15:10:26;;;;;;;2.33;1.93;;;;;;;5.60;64.60;95690.00;6961500;28;20215;-72
2021/01/17 15:13:50;;;;;;;1.90;1.50;;;;;;;5.68;64.48;95707.13;6936707;28;20229;-72
2021/01/17 15:17:13;;;;;;;3.63;1.80;;;;;;;5.63;64.41;95715.31;6963497;28;20672;-72
2021/01/17 15:20:33;;;;;;;2.30;2.10;;;;;;;5.52;64.76;95715.13;6982542;28;20989;-72
2021/01/17 15:23:57;;;;;;;2.10;1.90;;;;;;;5.39;64.58;95717.66;6954157;28;20215;-72
2021/01/17 15:27:19;;;;;;;4.03;1.87;;;;;;;5.32;65.19;95726.03;6927317;28;20587;-73
2021/01/17 15:30:40;;;;;;;2.67;2.20;;;;;;;5.23;65.44;95737.13;6934753;28;20253;-72
2021/01/17 15:34:00;;;;;;;3.53;2.10;;;;;;;5.26;66.25;95735.16;6938859;28;20215;-72
2021/01/17 15:37:21;;;;;;;4.07;2.40;;;;;;;5.29;66.38;95740.22;6928281;28;20245;-73
2021/01/17 15:40:41;;;;;;;3.90;2.40;;;;;;;5.34;66.77;95737.31;6963191;28;20708;-72
2021/01/17 15:44:04;;;;;;;5.50;2.30;;;;;;;5.34;65.87;95742.56;6976814;28;20221;-73
2021/01/17 15:47:25;;;;;;;2.80;2.20;;;;;;;5.31;66.41;95743.63;6932861;28;20719;-73
2021/01/17 15:50:45;;;;;;;2.50;2.30;;;;;;;5.29;66.20;95740.22;6944724;28;20301;-72
2021/01/17 15:54:06;;;;;;;2.87;2.30;;;;;;;5.31;66.42;95750.66;6940066;28;20238;-73
2021/01/17 15:57:26;;;;;;;3.90;1.93;;;;;;;5.32;65.96;95752.38;6938130;28;20591;-71
2021/01/17 16:00:49;;;;;;;3.53;2.60;;;;;;;5.33;66.20;95757.53;6920132;28;20215;-72